createdAt,value
2018-04-19T00:02:29.194Z,7.70
2018-04-19T00:04:58.443Z,7.60
2018-04-19T00:07:27.970Z,10.30
2018-04-19T00:09:57.529Z,9.80
2018-04-19T00:12:26.718Z,8.40
2018-04-19T00:14:56.087Z,8.70
2018-04-19T00:17:25.398Z,9.50
2018-04-19T00:19:54.865Z,6.70
2018-04-19T00:22:24.845Z,8.50
2018-04-19T00:24:54.262Z,7.40
2018-04-19T00:27:24.115Z,7.60
2018-04-19T00:29:54.204Z,7.30
2018-04-19T00:32:23.350Z,9.70
2018-04-19T00:34:52.716Z,8.30
2018-04-19T00:37:22.061Z,10.00
2018-04-19T00:39:51.565Z,8.00
2018-04-19T00:42:20.813Z,8.00
2018-04-19T00:44:50.642Z,9.30
2018-04-19T00:47:19.941Z,9.30
2018-04-19T00:49:49.401Z,8.10
2018-04-19T00:52:18.709Z,7.90
2018-04-19T00:54:48.049Z,10.50
2018-04-19T00:57:17.552Z,7.60
2018-04-19T00:59:46.833Z,8.60
2018-04-19T01:02:16.332Z,9.50
2018-04-19T01:04:45.577Z,8.90
2018-04-19T01:07:15.530Z,8.50
2018-04-19T01:09:44.993Z,8.50
2018-04-19T01:12:14.247Z,8.30
2018-04-19T01:14:43.511Z,8.90
2018-04-19T01:17:12.682Z,9.30
2018-04-19T01:19:42.643Z,8.90
2018-04-19T01:22:11.947Z,8.90
2018-04-19T01:24:42.308Z,9.30
2018-04-19T01:27:11.988Z,9.70
2018-04-19T01:29:41.277Z,10.80
2018-04-19T01:32:10.395Z,9.70
2018-04-19T01:34:39.668Z,9.10
2018-04-19T01:37:08.978Z,9.70
2018-04-19T01:39:38.555Z,9.90
2018-04-19T01:42:07.752Z,10.70
2018-04-19T01:44:36.867Z,10.00
2018-04-19T01:47:06.260Z,10.40
2018-04-19T01:49:35.877Z,9.80
2018-04-19T01:52:04.984Z,9.30
2018-04-19T01:54:35.259Z,10.90
2018-04-19T01:57:04.630Z,10.30
2018-04-19T01:59:35.126Z,9.40
2018-04-19T02:02:04.476Z,9.90
2018-04-19T02:04:34.238Z,10.40
2018-04-19T02:07:03.517Z,9.40
2018-04-19T02:09:32.663Z,10.70
2018-04-19T02:12:02.951Z,20.50
2018-04-19T02:14:32.278Z,20.50
2018-04-19T02:17:01.407Z,22.00
2018-04-19T02:19:30.626Z,23.30
2018-04-19T02:22:00.554Z,22.90
2018-04-19T02:24:29.663Z,23.00
2018-04-19T02:27:00.017Z,23.90
2018-04-19T02:29:28.733Z,23.10
2018-04-19T02:31:57.655Z,22.90
2018-04-19T02:34:26.849Z,23.40
2018-04-19T02:36:56.378Z,24.70
2018-04-19T02:39:25.920Z,26.70
2018-04-19T02:41:55.139Z,26.10
2018-04-19T02:44:24.442Z,25.90
2018-04-19T02:46:53.633Z,26.10
2018-04-19T02:49:22.361Z,25.10
2018-04-19T02:51:51.041Z,26.80
2018-04-19T02:54:19.842Z,26.70
2018-04-19T02:56:48.766Z,27.10
2018-04-19T02:59:18.317Z,27.70
2018-04-19T03:01:47.651Z,27.60
2018-04-19T03:04:19.233Z,27.20
2018-04-19T03:06:52.325Z,27.40
2018-04-19T03:09:21.605Z,28.40
2018-04-19T03:11:53.339Z,30.60
2018-04-19T03:14:24.923Z,28.90
2018-04-19T03:16:54.721Z,29.40
2018-04-19T03:19:23.888Z,29.40
2018-04-19T03:21:54.825Z,31.20
2018-04-19T03:24:24.102Z,31.20
2018-04-19T03:26:53.381Z,32.50
2018-04-19T03:29:23.722Z,32.30
2018-04-19T03:31:53.756Z,32.20
2018-04-19T03:34:23.235Z,32.50
2018-04-19T03:36:52.549Z,32.10
2018-04-19T03:39:21.890Z,33.30
2018-04-19T03:41:51.149Z,34.20
2018-04-19T03:44:20.228Z,34.00
2018-04-19T03:46:48.904Z,34.00
2018-04-19T03:49:17.728Z,35.90
2018-04-19T03:51:46.435Z,36.00
2018-04-19T03:54:15.886Z,38.30
2018-04-19T03:56:44.640Z,38.10
2018-04-19T03:59:13.560Z,36.60
2018-04-19T04:01:43.497Z,38.70
2018-04-19T04:04:12.792Z,38.70
2018-04-19T04:06:42.309Z,39.30
2018-04-19T04:09:11.778Z,40.60
2018-04-19T04:11:41.116Z,39.90
2018-04-19T04:14:10.397Z,41.40
2018-04-19T04:16:51.164Z,39.60
2018-04-19T04:19:31.746Z,40.90
2018-04-19T04:22:12.144Z,42.90
2018-04-19T04:24:42.014Z,41.50
2018-04-19T04:27:11.483Z,40.90
2018-04-19T04:29:43.309Z,40.80
2018-04-19T04:32:13.167Z,39.80
2018-04-19T04:34:42.155Z,39.70
2018-04-19T04:37:11.513Z,40.20
2018-04-19T04:39:40.774Z,41.10
2018-04-19T04:42:10.500Z,42.50
2018-04-19T04:44:39.768Z,44.50
2018-04-19T04:47:10.717Z,43.60
2018-04-19T04:49:40.507Z,44.70
2018-04-19T04:52:09.862Z,44.50
2018-04-19T05:00:20.295Z,44.70
2018-04-19T05:02:49.751Z,45.90
2018-04-19T05:05:20.164Z,45.60
2018-04-19T05:07:49.419Z,46.20
2018-04-19T05:10:18.941Z,47.20
2018-04-19T05:12:48.043Z,48.10
2018-04-19T05:15:17.042Z,50.50
2018-04-19T05:17:46.351Z,50.50
2018-04-19T05:20:15.637Z,50.60
2018-04-19T05:22:45.038Z,51.60
2018-04-19T05:25:14.258Z,51.80
2018-04-19T05:27:43.515Z,52.50
2018-04-19T05:30:13.624Z,51.70
2018-04-19T05:32:43.190Z,51.60
2018-04-19T05:35:12.731Z,51.50
2018-04-19T05:37:41.925Z,51.70
2018-04-19T05:40:11.197Z,51.80
2018-04-19T05:42:40.470Z,52.00
2018-04-19T05:45:09.521Z,53.40
2018-04-19T05:47:39.029Z,53.10
2018-04-19T05:50:08.567Z,54.20
2018-04-19T05:52:38.508Z,54.30
2018-04-19T05:55:07.752Z,54.30
2018-04-19T05:57:37.269Z,54.40
2018-04-19T06:00:06.288Z,54.60
2018-04-19T06:02:35.606Z,55.30
2018-04-19T06:05:04.860Z,55.00
2018-04-19T06:07:34.161Z,55.30
2018-04-19T06:10:03.287Z,55.90
2018-04-19T06:12:32.782Z,55.60
2018-04-19T06:15:01.883Z,56.20
2018-04-19T06:17:30.971Z,55.60
2018-04-19T06:20:00.209Z,56.30
2018-04-19T06:22:29.507Z,56.00
2018-04-19T06:24:58.896Z,56.10
2018-04-19T06:27:28.555Z,56.40
2018-04-19T06:29:58.185Z,57.10
2018-04-19T06:32:29.007Z,56.50
2018-04-19T06:34:58.297Z,56.60
2018-04-19T06:37:27.585Z,58.20
2018-04-19T06:39:57.494Z,60.50
2018-04-19T06:42:26.824Z,60.70
2018-04-19T06:44:56.087Z,60.90
2018-04-19T06:47:25.429Z,61.40
2018-04-19T06:49:55.441Z,62.20
2018-04-19T06:52:24.716Z,62.00
2018-04-19T06:54:54.034Z,61.70
2018-04-19T06:57:23.293Z,61.50
2018-04-19T06:59:52.674Z,61.90
2018-04-19T07:02:21.929Z,62.40
2018-04-19T07:04:52.623Z,64.00
2018-04-19T07:07:21.926Z,64.10
2018-04-19T07:09:51.035Z,64.10
2018-04-19T07:12:20.305Z,63.70
2018-04-19T07:14:49.646Z,63.90
2018-04-19T07:17:18.974Z,64.70
2018-04-19T07:19:48.234Z,64.70
2018-04-19T07:22:17.310Z,66.20
2018-04-19T07:24:46.481Z,67.20
2018-04-19T07:27:15.520Z,68.30
2018-04-19T07:29:44.808Z,67.90
2018-04-19T07:32:14.152Z,67.50
2018-04-19T07:34:44.634Z,66.90
2018-04-19T07:37:13.833Z,67.00
2018-04-19T07:39:43.029Z,66.70
2018-04-19T07:42:12.329Z,66.70
2018-04-19T07:44:41.666Z,66.70
2018-04-19T07:47:11.768Z,67.80
2018-04-19T07:49:41.667Z,68.20
2018-04-19T07:52:10.786Z,68.20
2018-04-19T07:54:39.653Z,69.40
2018-04-19T07:57:08.740Z,68.90
2018-04-19T07:59:38.073Z,68.50
2018-04-19T08:02:07.356Z,68.50
2018-04-19T08:04:36.621Z,69.70
2018-04-19T08:07:05.801Z,70.00
2018-04-19T08:09:35.275Z,69.60
2018-04-19T08:12:04.522Z,68.90
2018-04-19T08:14:33.840Z,69.20
2018-04-19T08:17:02.947Z,70.60
2018-04-19T08:19:32.960Z,70.70
2018-04-19T08:22:02.035Z,70.20
2018-04-19T08:24:31.385Z,70.00
2018-04-19T08:27:00.625Z,71.10
2018-04-19T08:29:30.180Z,71.10
2018-04-19T08:31:59.271Z,71.10
2018-04-19T08:34:28.340Z,70.70
2018-04-19T08:36:58.378Z,70.50
2018-04-19T08:39:27.769Z,71.40
2018-04-19T08:41:57.068Z,73.80
2018-04-19T08:44:26.241Z,75.10
2018-04-19T08:46:55.329Z,76.20
2018-04-19T08:49:24.357Z,75.90
2018-04-19T08:51:53.624Z,75.50
2018-04-19T08:54:22.818Z,75.10
2018-04-19T08:56:52.370Z,74.70
2018-04-19T08:59:21.638Z,74.70
2018-04-19T09:01:50.996Z,74.20
2018-04-19T09:04:20.443Z,74.80
2018-04-19T09:06:49.567Z,75.50
2018-04-19T09:09:18.866Z,75.00
2018-04-19T09:11:48.134Z,74.80
2018-04-19T09:14:17.452Z,75.70
2018-04-19T09:16:46.998Z,77.20
2018-04-19T09:19:16.029Z,77.50
2018-04-19T09:21:45.957Z,76.80
2018-04-19T09:24:15.501Z,76.80
2018-04-19T09:26:44.593Z,76.00
2018-04-19T09:29:13.655Z,76.40
2018-04-19T09:31:42.883Z,76.00
2018-04-19T09:34:12.157Z,76.60
2018-04-19T09:36:41.438Z,77.00
2018-04-19T09:39:11.784Z,77.40
2018-04-19T09:41:41.060Z,77.70
2018-04-19T09:44:10.416Z,77.70
2018-04-19T09:46:39.681Z,78.10
2018-04-19T09:49:10.420Z,79.10
2018-04-19T09:51:39.858Z,79.20
2018-04-19T09:54:09.986Z,80.90
2018-04-19T09:56:40.375Z,81.60
2018-04-19T09:59:14.021Z,81.20
2018-04-19T10:01:49.441Z,81.60
2018-04-19T10:04:25.152Z,81.50
2018-04-19T10:06:54.882Z,83.00
2018-04-19T10:09:25.177Z,83.30
2018-04-19T10:11:54.510Z,83.10
2018-04-19T10:14:23.829Z,82.80
2018-04-19T10:16:53.149Z,82.30
2018-04-19T10:19:22.547Z,83.00
2018-04-19T10:21:51.958Z,83.10
2018-04-19T10:24:21.157Z,83.40
2018-04-19T10:26:50.483Z,83.30
2018-04-19T10:29:19.837Z,83.40
2018-04-19T10:31:49.073Z,83.50
2018-04-19T10:34:18.966Z,83.60
2018-04-19T10:36:48.113Z,83.00
2018-04-19T10:39:18.342Z,83.70
2018-04-19T10:41:47.738Z,84.00
2018-04-19T10:44:17.060Z,84.10
2018-04-19T10:46:46.625Z,84.30
2018-04-19T10:49:16.446Z,84.50
2018-04-19T10:51:46.345Z,84.50
2018-04-19T10:54:15.476Z,84.80
2018-04-19T10:56:44.710Z,85.20
2018-04-19T10:59:14.082Z,85.20
2018-04-19T11:01:43.507Z,85.70
2018-04-19T11:04:12.799Z,85.50
2018-04-19T11:06:42.260Z,86.00
2018-04-19T11:09:11.796Z,86.20
2018-04-19T11:11:40.965Z,85.40
2018-04-19T11:14:10.428Z,85.80
2018-04-19T11:16:39.694Z,86.40
2018-04-19T11:19:09.460Z,86.50
2018-04-19T11:21:38.726Z,86.80
2018-04-19T11:24:08.017Z,87.20
2018-04-19T11:26:37.363Z,87.40
2018-04-19T11:29:06.637Z,88.00
2018-04-19T11:31:37.804Z,88.20
2018-04-19T11:34:07.718Z,88.40
2018-04-19T11:36:37.013Z,88.30
2018-04-19T11:39:07.381Z,89.50
2018-04-19T11:41:37.252Z,89.30
2018-04-19T11:44:06.521Z,89.20
2018-04-19T11:46:35.861Z,89.00
2018-04-19T11:49:05.901Z,89.50
2018-04-19T11:51:35.620Z,89.40
2018-04-19T11:54:04.908Z,89.60
2018-04-19T11:56:34.124Z,89.70
2018-04-19T11:59:03.522Z,89.50
2018-04-19T12:01:32.710Z,89.60
2018-04-19T12:04:01.825Z,89.50
2018-04-19T12:06:31.136Z,89.30
2018-04-19T12:09:00.525Z,89.40
2018-04-19T12:11:29.940Z,89.90
2018-04-19T12:13:58.992Z,89.80
2018-04-19T12:16:28.223Z,90.20
2018-04-19T12:18:57.508Z,90.50
2018-04-19T12:21:26.810Z,90.50
2018-04-19T12:23:56.487Z,90.40
2018-04-19T12:26:26.872Z,90.20
2018-04-19T12:28:56.386Z,90.20
2018-04-19T12:31:25.728Z,90.30
2018-04-19T12:33:54.973Z,90.40
2018-04-19T12:36:24.246Z,90.40
2018-04-19T12:38:53.655Z,90.30
2018-04-19T12:41:22.846Z,90.30
2018-04-19T12:43:52.989Z,90.20
2018-04-19T12:46:22.083Z,90.30
2018-04-19T12:48:51.068Z,90.40
2018-04-19T12:51:20.613Z,90.50
2018-04-19T12:53:49.699Z,90.50
2018-04-19T12:56:26.425Z,90.70
2018-04-19T12:58:55.658Z,90.90
2018-04-19T13:01:24.966Z,91.00
2018-04-19T13:03:54.442Z,91.00
2018-04-19T13:06:24.011Z,91.00
2018-04-19T13:08:53.301Z,90.80
2018-04-19T13:11:22.809Z,90.90
2018-04-19T13:13:52.101Z,90.80
2018-04-19T13:16:21.331Z,90.90
2018-04-19T13:18:50.690Z,90.80
2018-04-19T13:21:19.988Z,90.80
2018-04-19T13:23:50.180Z,91.10
2018-04-19T13:26:19.250Z,91.10
2018-04-19T13:28:48.714Z,91.00
2018-04-19T13:31:17.902Z,91.10
2018-04-19T13:33:47.102Z,91.00
2018-04-19T13:36:16.160Z,91.10
2018-04-19T13:38:45.655Z,91.10
2018-04-19T13:41:16.420Z,91.10
2018-04-19T13:43:46.756Z,91.20
2018-04-19T13:46:17.077Z,91.20
2018-04-19T13:48:46.855Z,91.40
2018-04-19T13:51:15.896Z,91.70
2018-04-19T13:53:45.305Z,91.60
2018-04-19T13:56:15.016Z,91.60
2018-04-19T13:58:44.502Z,91.60
2018-04-19T14:01:15.059Z,91.60
2018-04-19T14:03:44.547Z,91.70
2018-04-19T14:06:13.749Z,91.70
2018-04-19T14:08:42.948Z,91.80
2018-04-19T14:11:12.562Z,91.80
2018-04-19T14:13:41.776Z,91.90
2018-04-19T14:16:11.073Z,92.10
2018-04-19T14:18:40.701Z,92.30
2018-04-19T14:21:10.114Z,93.10
2018-04-19T14:23:39.191Z,93.50
2018-04-19T14:26:08.262Z,93.50
2018-04-19T14:28:38.006Z,93.70
2018-04-19T14:31:07.060Z,93.70
2018-04-19T14:33:36.448Z,93.60
2018-04-19T14:36:05.785Z,93.00
2018-04-19T14:38:35.318Z,93.20
2018-04-19T14:41:04.642Z,93.00
2018-04-19T14:43:33.798Z,92.50
2018-04-19T14:46:03.292Z,91.70
2018-04-19T14:48:33.640Z,90.60
2018-04-19T14:51:02.912Z,91.60
2018-04-19T14:53:33.086Z,82.20
2018-04-19T14:56:02.349Z,81.90
2018-04-19T14:58:31.509Z,81.20
2018-04-19T15:01:00.900Z,81.80
2018-04-19T15:03:30.660Z,73.90
2018-04-19T15:06:00.127Z,71.10
2018-04-19T15:08:29.241Z,73.90
2018-04-19T15:10:58.346Z,67.50
2018-04-19T15:13:28.260Z,68.40
2018-04-19T15:15:57.713Z,59.10
2018-04-19T15:18:27.232Z,55.80
2018-04-19T15:20:56.654Z,53.20
2018-04-19T15:23:26.146Z,45.30
2018-04-19T15:25:55.449Z,38.20
2018-04-19T15:28:24.684Z,35.00
2018-04-19T15:30:53.762Z,28.10
2018-04-19T15:33:23.884Z,23.70
2018-04-19T15:35:53.220Z,23.60
2018-04-19T15:38:23.279Z,20.80
2018-04-19T15:40:52.382Z,19.60
2018-04-19T15:43:21.744Z,17.30
2018-04-19T15:45:51.146Z,18.60
2018-04-19T15:48:20.484Z,15.00
2018-04-19T15:50:50.783Z,15.10
2018-04-19T15:53:20.077Z,11.50
2018-04-19T15:55:49.192Z,11.90
2018-04-19T15:58:18.273Z,11.00
2018-04-19T16:00:47.165Z,10.20
2018-04-19T16:03:16.538Z,9.40
2018-04-19T16:05:46.639Z,11.40
2018-04-19T16:08:16.100Z,11.40
2018-04-19T16:10:45.187Z,9.20
2018-04-19T16:13:14.495Z,9.80
2018-04-19T16:15:43.849Z,8.90
2018-04-19T16:18:13.017Z,8.00
2018-04-19T16:20:42.253Z,6.40
2018-04-19T16:23:11.574Z,5.60
2018-04-19T16:25:40.918Z,4.50
2018-04-19T16:28:10.459Z,2.10
2018-04-19T16:30:39.654Z,3.50
2018-04-19T16:33:09.592Z,5.60
2018-04-19T16:35:39.596Z,4.60
2018-04-19T16:38:09.088Z,4.60
2018-04-19T16:40:38.431Z,2.00
2018-04-19T16:43:08.581Z,3.90
2018-04-19T16:45:39.066Z,4.40
2018-04-19T16:48:08.318Z,4.40
2018-04-19T16:50:37.658Z,3.00
2018-04-19T16:53:08.037Z,1.00
2018-04-19T16:55:37.309Z,3.30
2018-04-19T16:58:06.782Z,3.60
2018-04-19T17:00:36.034Z,1.00
2018-04-19T17:03:05.390Z,4.50
2018-04-19T17:05:34.660Z,2.90
2018-04-19T17:08:03.769Z,3.30
2018-04-19T17:10:32.927Z,4.00
2018-04-19T17:13:03.356Z,3.50
2018-04-19T17:15:33.672Z,3.00
2018-04-19T17:18:02.752Z,2.90
2018-04-19T17:20:39.748Z,8.60
2018-04-19T17:23:08.816Z,8.60
2018-04-19T17:25:37.897Z,10.80
2018-04-19T17:28:07.056Z,8.90
2018-04-19T17:30:37.067Z,7.90
2018-04-19T17:33:06.382Z,8.00
2018-04-19T17:35:35.938Z,7.70
2018-04-19T17:38:05.847Z,7.80
2018-04-19T17:40:34.928Z,7.80
2018-04-19T17:43:04.779Z,8.60
2018-04-19T17:45:33.809Z,8.00
2018-04-19T17:48:03.144Z,7.40
2018-04-19T17:50:32.417Z,5.10
2018-04-19T17:53:02.073Z,6.20
2018-04-19T17:55:32.125Z,10.40
2018-04-19T17:58:02.336Z,10.90
2018-04-19T18:00:31.772Z,10.90
2018-04-19T18:03:02.184Z,7.90
2018-04-19T18:05:31.387Z,7.90
2018-04-19T18:08:00.477Z,11.60
2018-04-19T18:10:29.772Z,11.50
2018-04-19T18:12:59.294Z,12.30
2018-04-19T18:15:28.542Z,11.60
2018-04-19T18:17:57.891Z,8.70
2018-04-19T18:20:26.995Z,10.80
2018-04-19T18:22:57.328Z,9.80
2018-04-19T18:25:26.625Z,10.50
2018-04-19T18:27:55.713Z,10.10
2018-04-19T18:30:25.003Z,9.10
2018-04-19T18:32:55.725Z,9.80
2018-04-19T18:35:25.071Z,9.60
2018-04-19T18:37:54.110Z,10.20
2018-04-19T18:40:23.424Z,7.70
2018-04-19T18:42:52.519Z,5.80
2018-04-19T18:45:22.246Z,8.00
2018-04-19T18:47:51.702Z,12.90
2018-04-19T18:50:21.029Z,8.80
2018-04-19T18:52:50.758Z,7.70
2018-04-19T18:55:19.866Z,9.60
2018-04-19T18:57:50.010Z,5.40
2018-04-19T19:00:19.060Z,8.00
2018-04-19T19:02:48.379Z,9.20
2018-04-19T19:05:17.722Z,8.10
2018-04-19T19:07:46.933Z,7.60
2018-04-19T19:10:16.265Z,6.90
2018-04-19T19:12:46.584Z,9.40
2018-04-19T19:15:40.270Z,7.40
2018-04-19T19:18:20.817Z,7.70
2018-04-19T19:20:50.152Z,9.10
2018-04-19T19:23:19.427Z,8.80
2018-04-19T19:25:48.705Z,4.90
2018-04-19T19:28:17.912Z,5.90
2018-04-19T19:30:46.970Z,8.20
2018-04-19T19:33:16.295Z,6.50
2018-04-19T19:35:45.761Z,5.20
2018-04-19T19:38:14.936Z,4.50
2018-04-19T19:40:44.343Z,3.10
2018-04-19T19:43:13.725Z,2.80
2018-04-19T19:45:43.804Z,1.70
2018-04-19T19:48:13.116Z,1.60
2018-04-19T19:50:42.169Z,2.50
2018-04-19T19:53:11.464Z,3.00
2018-04-19T19:55:40.895Z,5.50
2018-04-19T19:58:11.081Z,5.10
2018-04-19T20:00:40.309Z,4.90
2018-04-19T20:03:09.621Z,4.10
2018-04-19T20:05:40.601Z,10.10
2018-04-19T20:08:10.144Z,10.10
2018-04-19T20:10:39.344Z,10.90
2018-04-19T20:13:08.853Z,8.60
2018-04-19T20:15:38.171Z,12.40
2018-04-19T20:18:07.661Z,9.30
2018-04-19T20:20:36.982Z,13.80
2018-04-19T20:23:06.070Z,11.20
2018-04-19T20:25:35.330Z,11.40
2018-04-19T20:28:04.697Z,13.40
2018-04-19T20:30:33.823Z,17.80
2018-04-19T20:33:03.154Z,14.70
2018-04-19T20:35:32.429Z,11.20
2018-04-19T20:38:01.948Z,12.90
2018-04-19T20:40:31.073Z,12.10
2018-04-19T20:43:00.836Z,11.70
2018-04-19T20:45:29.650Z,10.50
2018-04-19T20:47:59.178Z,11.00
2018-04-19T20:50:28.677Z,12.40
2018-04-19T20:52:57.981Z,11.30
2018-04-19T20:55:27.973Z,11.40
2018-04-19T20:57:57.078Z,11.20
2018-04-19T21:00:27.418Z,11.00
2018-04-19T21:02:56.507Z,8.90
2018-04-19T21:05:25.588Z,5.60
2018-04-19T21:07:56.335Z,5.60
2018-04-19T21:10:25.612Z,5.50
2018-04-19T21:12:54.896Z,1.00
2018-04-19T21:15:24.189Z,1.00
2018-04-19T21:17:53.328Z,1.00
2018-04-19T21:20:22.588Z,2.40
2018-04-19T21:22:51.895Z,1.80
2018-04-19T21:25:20.996Z,1.60
2018-04-19T21:27:50.315Z,5.90
2018-04-19T21:30:19.571Z,7.40
2018-04-19T21:32:48.896Z,7.50
2018-04-19T21:35:18.210Z,5.00
2018-04-19T21:37:47.478Z,6.80
2018-04-19T21:40:16.769Z,7.80
2018-04-19T21:42:45.756Z,7.60
2018-04-19T21:45:14.991Z,9.40
2018-04-19T21:47:44.470Z,9.40
2018-04-19T21:50:14.318Z,10.10
2018-04-19T21:52:43.407Z,10.20
2018-04-19T21:55:13.518Z,10.60
2018-04-19T21:57:42.707Z,10.40
2018-04-19T22:00:12.301Z,9.90
2018-04-19T22:02:42.918Z,10.80
2018-04-19T22:05:12.452Z,10.00
2018-04-19T22:07:41.720Z,9.50
2018-04-19T22:10:11.225Z,7.80
2018-04-19T22:12:40.550Z,9.00
2018-04-19T22:15:09.825Z,7.50
2018-04-19T22:17:39.336Z,10.70
2018-04-19T22:20:08.651Z,8.80
2018-04-19T22:22:38.192Z,9.00
2018-04-19T22:25:07.082Z,10.70
2018-04-19T22:27:36.143Z,10.70
2018-04-19T22:30:05.330Z,6.50
2018-04-19T22:32:34.697Z,8.60
2018-04-19T22:35:03.735Z,6.40
2018-04-19T22:37:33.030Z,7.20
2018-04-19T22:40:02.164Z,6.90
2018-04-19T22:42:31.425Z,8.40
2018-04-19T22:45:00.995Z,8.70
2018-04-19T22:47:30.045Z,9.10
2018-04-19T22:49:59.316Z,8.00
2018-04-19T22:52:29.734Z,7.30
2018-04-19T22:54:58.953Z,5.30
2018-04-19T22:57:28.210Z,7.60
2018-04-19T22:59:57.392Z,6.90
2018-04-19T23:02:26.665Z,5.80
2018-04-19T23:04:56.944Z,5.90
2018-04-19T23:07:26.263Z,6.90
2018-04-19T23:09:55.532Z,8.00
2018-04-19T23:12:24.958Z,6.20
2018-04-19T23:14:54.239Z,5.00
2018-04-19T23:17:23.728Z,5.40
2018-04-19T23:19:53.245Z,6.10
2018-04-19T23:22:28.773Z,4.80
2018-04-19T23:24:58.003Z,5.30
2018-04-19T23:27:27.358Z,5.00
2018-04-19T23:30:04.396Z,5.10
2018-04-19T23:32:33.916Z,4.40
2018-04-19T23:35:04.246Z,5.20
2018-04-19T23:37:33.330Z,5.20
2018-04-19T23:40:03.688Z,3.00
2018-04-19T23:42:32.726Z,2.90
2018-04-19T23:45:01.980Z,3.60
2018-04-19T23:47:31.340Z,3.40
2018-04-19T23:50:00.500Z,4.40
2018-04-19T23:52:29.833Z,5.80
2018-04-19T23:55:00.593Z,6.60
2018-04-19T23:57:29.837Z,6.90
2018-04-19T23:59:59.065Z,5.90
